Time;durP1;ratioP1;P1;durP2;ratioP2;P2;SDS_P1;SDS_P2;PMS_P1;PMS_P2;Temp;Humidity;BMP_temperature;BMP_pressure;BME280_temperature;BME280_humidity;BME280_pressure;Samples;Min_cycle;Max_cycle;Signal;HPM_P1;HPM_P2
2022/07/14 00:01:06;;;;;;;6.95;2.78;;;16.40;99.90;;;;;;5078486;28;20038;-79
2022/07/14 00:03:32;;;;;;;8.73;3.35;;;16.40;99.90;;;;;;5080236;28;20032;-78
2022/07/14 00:05:58;;;;;;;11.07;3.20;;;16.30;99.90;;;;;;5080542;28;20510;-79
2022/07/14 00:08:23;;;;;;;9.75;3.25;;;16.40;99.90;;;;;;5085931;28;20049;-79
2022/07/14 00:10:49;;;;;;;10.73;3.17;;;16.40;99.90;;;;;;5095286;28;20538;-79
2022/07/14 00:13:15;;;;;;;5.97;3.53;;;16.40;99.90;;;;;;5091934;28;20024;-79
2022/07/14 00:15:40;;;;;;;9.02;3.25;;;16.40;99.90;;;;;;5085501;28;20081;-79
2022/07/14 00:18:06;;;;;;;15.45;3.90;;;16.40;99.90;;;;;;5097981;28;20027;-80
2022/07/14 00:20:31;;;;;;;10.30;3.80;;;16.30;99.90;;;;;;5099303;28;20391;-79
2022/07/14 00:22:57;;;;;;;7.60;3.85;;;16.30;99.90;;;;;;5097957;28;20039;-79
2022/07/14 00:25:26;;;;;;;8.90;3.70;;;16.30;99.90;;;;;;5086384;28;20031;-79
2022/07/14 00:27:53;;;;;;;11.45;3.38;;;16.30;99.90;;;;;;5092949;28;20029;-79
2022/07/14 00:30:20;;;;;;;9.63;3.85;;;16.20;99.90;;;;;;5091812;28;20050;-78
2022/07/14 00:32:46;;;;;;;13.60;4.18;;;16.20;99.90;;;;;;5097833;28;20052;-79
2022/07/14 00:35:12;;;;;;;10.45;4.03;;;16.20;99.90;;;;;;5098356;28;20032;-78
2022/07/14 00:37:37;;;;;;;8.32;3.35;;;16.10;99.90;;;;;;5097684;28;20537;-80
2022/07/14 00:40:04;;;;;;;10.75;4.22;;;16.10;99.90;;;;;;5090716;28;20032;-79
2022/07/14 00:42:37;;;;;;;5.78;3.25;;;16.00;99.90;;;;;;5091139;28;20028;-79
2022/07/14 00:45:05;;;;;;;9.88;3.25;;;16.00;99.90;;;;;;5083445;28;20065;-79
2022/07/14 00:47:32;;;;;;;11.30;3.50;;;16.00;99.90;;;;;;5097053;28;20032;-79
2022/07/14 00:49:57;;;;;;;13.38;3.67;;;16.10;99.90;;;;;;5096656;28;20371;-80
2022/07/14 00:52:26;;;;;;;9.98;3.10;;;16.00;99.90;;;;;;5096320;28;20021;-80
2022/07/14 00:54:53;;;;;;;10.98;3.70;;;15.90;99.90;;;;;;5096853;28;20032;-78
2022/07/14 00:57:19;;;;;;;9.18;2.90;;;16.00;99.90;;;;;;5089636;28;20032;-79
2022/07/14 00:59:45;;;;;;;12.02;3.22;;;15.90;99.90;;;;;;5097014;28;20025;-80
2022/07/14 01:02:11;;;;;;;11.43;2.88;;;15.90;99.90;;;;;;5093389;28;20016;-78
2022/07/14 01:04:37;;;;;;;5.55;2.60;;;15.80;99.90;;;;;;5082174;28;20034;-78
2022/07/14 01:07:03;;;;;;;9.23;2.72;;;15.80;99.90;;;;;;5089103;28;20103;-78
2022/07/14 01:09:29;;;;;;;8.20;2.90;;;15.70;99.90;;;;;;5081601;28;20054;-79
2022/07/14 01:11:57;;;;;;;5.43;3.13;;;15.70;99.90;;;;;;5096357;28;20031;-79
2022/07/14 01:14:22;;;;;;;9.60;3.90;;;15.60;99.90;;;;;;5099834;28;20039;-79
2022/07/14 01:16:54;;;;;;;10.07;2.95;;;15.60;99.90;;;;;;5094682;28;20040;-79
2022/07/14 01:19:21;;;;;;;8.20;2.95;;;15.60;99.90;;;;;;5077704;28;20028;-79
2022/07/14 01:21:46;;;;;;;10.63;3.15;;;15.60;99.90;;;;;;5084168;28;20032;-79
2022/07/14 01:24:12;;;;;;;11.30;3.17;;;15.60;99.90;;;;;;5095361;28;20122;-79
2022/07/14 01:26:37;;;;;;;6.75;3.67;;;15.50;99.90;;;;;;5105273;28;20012;-78
2022/07/14 01:29:06;;;;;;;5.68;2.95;;;15.50;99.90;;;;;;5108269;28;20024;-80
2022/07/14 01:31:32;;;;;;;7.05;3.10;;;15.50;99.90;;;;;;5098238;28;20433;-78
2022/07/14 01:33:57;;;;;;;11.23;3.08;;;15.50;99.90;;;;;;5095603;28;20039;-79
2022/07/14 01:36:24;;;;;;;5.85;3.28;;;15.40;99.90;;;;;;5096659;28;20498;-79
2022/07/14 01:38:52;;;;;;;6.80;3.25;;;15.40;99.90;;;;;;5095872;28;20065;-78
2022/07/14 01:41:18;;;;;;;7.10;3.67;;;15.40;99.90;;;;;;5095536;28;20020;-77
2022/07/14 01:43:44;;;;;;;12.13;3.35;;;15.50;99.90;;;;;;5083727;28;20032;-78
2022/07/14 01:46:10;;;;;;;5.13;3.20;;;15.40;99.90;;;;;;5096693;28;20065;-80
2022/07/14 01:48:35;;;;;;;10.88;2.95;;;15.30;99.90;;;;;;5096288;28;20533;-79
2022/07/14 01:51:01;;;;;;;10.25;2.90;;;15.20;99.90;;;;;;5096661;28;20023;-79
2022/07/14 01:53:27;;;;;;;8.73;3.60;;;15.20;99.90;;;;;;5096813;28;20035;-79
2022/07/14 01:55:52;;;;;;;9.18;3.28;;;15.20;99.90;;;;;;5094978;28;20139;-79
2022/07/14 01:58:18;;;;;;;15.50;3.53;;;15.20;99.90;;;;;;5096491;28;20039;-80
2022/07/14 02:00:44;;;;;;;11.43;2.65;;;15.10;99.90;;;;;;5096210;28;20484;-79
2022/07/14 02:03:09;;;;;;;12.18;3.30;;;15.10;99.90;;;;;;5096662;28;20533;-80
2022/07/14 02:05:35;;;;;;;6.65;2.35;;;15.10;99.90;;;;;;5095761;28;20035;-79
2022/07/14 02:08:00;;;;;;;8.25;3.15;;;15.00;99.90;;;;;;5086857;28;20020;-80
2022/07/14 02:13:23;;;;;;;7.60;3.00;;;15.00;99.90;;;;;;5032301;28;20497;-79
2022/07/14 02:15:49;;;;;;;9.02;3.05;;;15.00;99.90;;;;;;5033746;28;20076;-78
2022/07/14 02:18:14;;;;;;;6.38;2.72;;;15.00;99.90;;;;;;5077615;28;20028;-78
2022/07/14 02:20:40;;;;;;;9.80;3.03;;;15.00;99.90;;;;;;5082133;28;20392;-78
2022/07/14 02:23:05;;;;;;;8.48;2.40;;;15.00;99.90;;;;;;5096773;28;20018;-78
2022/07/14 02:25:31;;;;;;;9.32;4.00;;;14.90;99.90;;;;;;5096187;28;20024;-77
2022/07/14 02:27:57;;;;;;;5.85;3.25;;;14.90;99.90;;;;;;5095064;28;20019;-79
2022/07/14 02:30:22;;;;;;;11.05;3.63;;;14.90;99.90;;;;;;5095532;28;20032;-79
2022/07/14 02:32:48;;;;;;;7.78;2.80;;;14.90;99.90;;;;;;5095756;28;20020;-79
2022/07/14 02:35:14;;;;;;;7.28;3.72;;;14.90;99.90;;;;;;5096128;28;20032;-79
2022/07/14 02:37:39;;;;;;;7.18;2.80;;;14.90;99.90;;;;;;5095149;28;20044;-79
2022/07/14 02:40:05;;;;;;;7.93;2.72;;;14.90;99.90;;;;;;5095313;28;20447;-79
2022/07/14 02:42:31;;;;;;;8.45;2.63;;;14.90;99.90;;;;;;5095635;28;20058;-79
2022/07/14 02:44:57;;;;;;;4.28;2.58;;;14.80;99.90;;;;;;5094626;28;20020;-78
2022/07/14 02:47:22;;;;;;;10.48;2.88;;;14.90;99.90;;;;;;5095379;28;20024;-79
2022/07/14 02:49:48;;;;;;;5.85;2.95;;;14.90;99.90;;;;;;5095817;28;20016;-80
2022/07/14 02:52:13;;;;;;;5.47;2.85;;;14.80;99.90;;;;;;5095267;28;20035;-80
2022/07/14 02:54:39;;;;;;;5.97;2.85;;;14.80;99.90;;;;;;5096679;28;20051;-79
2022/07/14 02:57:05;;;;;;;6.28;2.80;;;14.80;99.90;;;;;;5096230;28;20019;-79
2022/07/14 02:59:30;;;;;;;4.60;2.88;;;14.80;99.90;;;;;;5094249;28;20070;-78
2022/07/14 03:01:56;;;;;;;8.40;3.55;;;14.80;99.90;;;;;;5095370;28;20016;-80
2022/07/14 03:04:21;;;;;;;8.88;2.95;;;14.70;99.90;;;;;;5096586;28;20050;-78
2022/07/14 03:06:47;;;;;;;8.50;2.95;;;14.70;99.90;;;;;;5094802;28;20024;-79
2022/07/14 03:09:13;;;;;;;7.65;3.22;;;14.70;99.90;;;;;;5079512;28;20056;-79
2022/07/14 03:12:00;;;;;;;8.52;3.40;;;14.60;99.90;;;;;;5098307;28;20232;-78
2022/07/14 03:14:33;;;;;;;10.38;3.30;;;14.70;99.90;;;;;;5090920;28;20132;-77
2022/07/14 03:16:59;;;;;;;9.40;3.45;;;14.70;99.90;;;;;;5098481;28;20028;-78
2022/07/14 03:19:27;;;;;;;7.38;2.58;;;14.70;99.90;;;;;;5094684;28;20448;-79
2022/07/14 03:21:53;;;;;;;9.65;2.80;;;14.70;99.90;;;;;;5095090;28;20502;-78
2022/07/14 03:24:20;;;;;;;5.43;3.20;;;14.60;99.90;;;;;;5095325;28;20144;-79
2022/07/14 03:26:46;;;;;;;5.55;2.80;;;14.70;99.90;;;;;;5094957;28;20094;-80
2022/07/14 03:29:12;;;;;;;5.32;2.80;;;14.70;99.90;;;;;;5095103;28;20032;-78
2022/07/14 03:31:38;;;;;;;3.40;2.63;;;14.70;99.90;;;;;;5095624;28;20016;-78
2022/07/14 03:34:04;;;;;;;10.00;3.15;;;14.70;99.90;;;;;;5094580;28;20525;-80
2022/07/14 03:36:29;;;;;;;10.18;3.13;;;14.60;99.90;;;;;;5094907;28;20036;-78
2022/07/14 03:38:55;;;;;;;6.70;3.00;;;14.60;99.90;;;;;;5095706;28;20036;-80
2022/07/14 03:41:20;;;;;;;8.93;3.30;;;14.60;99.90;;;;;;5091335;28;20357;-79
2022/07/14 03:43:46;;;;;;;5.72;3.10;;;14.70;99.90;;;;;;5087236;28;20459;-80
2022/07/14 03:46:12;;;;;;;9.90;3.03;;;14.60;99.90;;;;;;5086452;28;20541;-79
2022/07/14 03:48:38;;;;;;;9.90;3.30;;;14.70;99.90;;;;;;5099956;28;20115;-79
2022/07/14 03:51:05;;;;;;;9.20;3.15;;;14.70;99.90;;;;;;5106005;28;20031;-79
2022/07/14 03:53:30;;;;;;;10.93;3.55;;;14.80;99.90;;;;;;5106903;28;20042;-80
2022/07/14 03:55:57;;;;;;;7.25;3.25;;;14.80;99.90;;;;;;5100338;28;20060;-80
2022/07/14 03:58:24;;;;;;;9.57;3.80;;;14.80;99.90;;;;;;5100067;28;20160;-79
2022/07/14 04:00:50;;;;;;;11.05;3.22;;;14.90;99.90;;;;;;5100355;28;20020;-77
2022/07/14 04:03:16;;;;;;;7.25;3.30;;;14.90;99.90;;;;;;5103300;28;20042;-79
2022/07/14 04:05:42;;;;;;;7.65;3.35;;;14.80;99.90;;;;;;5107286;28;20026;-79
2022/07/14 04:08:08;;;;;;;11.98;3.90;;;14.80;99.90;;;;;;5090866;28;20432;-79
2022/07/14 04:10:34;;;;;;;7.97;3.35;;;14.70;99.90;;;;;;5081574;28;20029;-77
2022/07/14 04:13:00;;;;;;;4.07;2.80;;;14.80;99.90;;;;;;5099402;28;20016;-79
2022/07/14 04:15:27;;;;;;;7.88;3.30;;;14.80;99.90;;;;;;5084786;28;20036;-79
2022/07/14 04:17:53;;;;;;;8.18;2.75;;;14.70;99.90;;;;;;5091559;28;20016;-79
2022/07/14 04:20:19;;;;;;;8.02;3.13;;;14.70;99.90;;;;;;5089951;28;20040;-79
2022/07/14 04:22:45;;;;;;;7.30;3.05;;;14.60;99.90;;;;;;5098203;28;20051;-79
2022/07/14 04:25:12;;;;;;;4.80;2.75;;;14.60;99.90;;;;;;5087902;28;20029;-78
2022/07/14 04:27:38;;;;;;;9.15;2.88;;;14.60;99.90;;;;;;5096316;28;20038;-80
2022/07/14 04:30:04;;;;;;;3.72;2.97;;;14.60;99.90;;;;;;5097423;28;20830;-79
2022/07/14 04:32:30;;;;;;;9.25;3.17;;;14.60;99.90;;;;;;5098572;28;20118;-79
2022/07/14 04:34:59;;;;;;;6.45;2.70;;;14.60;99.90;;;;;;5098713;28;20040;-78
2022/07/14 04:37:26;;;;;;;6.95;3.08;;;14.70;99.90;;;;;;5098507;28;20375;-79
2022/07/14 04:39:53;;;;;;;5.90;2.60;;;14.80;99.90;;;;;;5098339;28;20028;-78
2022/07/14 04:42:18;;;;;;;6.68;3.22;;;14.90;99.90;;;;;;5098866;28;20497;-79
2022/07/14 04:44:44;;;;;;;10.30;3.25;;;14.90;99.90;;;;;;5098043;28;20023;-79
2022/07/14 04:47:10;;;;;;;12.75;3.00;;;14.80;99.90;;;;;;5098468;28;20031;-80
2022/07/14 04:52:19;;;;;;;11.52;3.42;;;14.80;99.90;;;;;;5098947;28;20076;-78
2022/07/14 04:54:48;;;;;;;5.13;2.67;;;14.80;99.90;;;;;;5097392;28;20099;-79
2022/07/14 04:57:13;;;;;;;10.07;2.90;;;14.80;99.90;;;;;;5098987;28;20049;-79
2022/07/14 04:59:39;;;;;;;12.23;3.10;;;14.80;99.90;;;;;;5098400;28;20087;-79
2022/07/14 05:02:04;;;;;;;6.13;2.75;;;14.90;99.90;;;;;;5102465;28;20368;-78
2022/07/14 05:04:30;;;;;;;6.97;2.90;;;14.90;99.90;;;;;;5103459;28;20081;-80
2022/07/14 05:06:57;;;;;;;7.68;2.90;;;15.10;99.90;;;;;;5096521;28;20096;-80
2022/07/14 05:09:25;;;;;;;4.68;2.50;;;15.10;99.90;;;;;;5085069;28;20056;-79
2022/07/14 05:11:52;;;;;;;8.73;2.90;;;15.20;99.90;;;;;;5098473;28;20087;-79
2022/07/14 05:14:18;;;;;;;9.73;3.78;;;15.20;99.90;;;;;;5098986;28;20039;-79
2022/07/14 05:16:45;;;;;;;5.47;2.58;;;15.30;99.90;;;;;;5100001;28;20016;-79
2022/07/14 05:19:11;;;;;;;3.95;2.13;;;15.40;99.90;;;;;;5097186;28;20047;-79
2022/07/14 05:21:37;;;;;;;10.10;2.40;;;15.40;99.90;;;;;;5098265;28;20028;-79
2022/07/14 05:24:03;;;;;;;11.63;2.65;;;15.50;99.90;;;;;;5098191;28;20028;-80
2022/07/14 05:26:28;;;;;;;8.40;2.72;;;15.60;99.90;;;;;;5098690;28;20364;-80
2022/07/14 05:28:54;;;;;;;6.40;2.40;;;15.70;99.90;;;;;;5098185;28;20020;-79
2022/07/14 05:31:20;;;;;;;7.78;2.25;;;15.70;99.90;;;;;;5099601;28;20380;-79
2022/07/14 05:33:46;;;;;;;8.20;2.97;;;15.70;99.90;;;;;;5097576;28;20622;-79
2022/07/14 05:36:12;;;;;;;5.93;2.72;;;15.80;99.90;;;;;;5097171;28;20047;-80
2022/07/14 05:38:38;;;;;;;7.28;2.17;;;15.80;99.90;;;;;;5098842;28;20031;-79
2022/07/14 05:41:04;;;;;;;4.63;2.28;;;15.90;99.90;;;;;;5095913;28;20031;-79
2022/07/14 05:43:31;;;;;;;4.88;1.80;;;16.00;99.90;;;;;;5095110;28;20110;-80
2022/07/14 05:46:04;;;;;;;9.30;2.00;;;16.00;99.90;;;;;;5086568;28;20024;-81
2022/07/14 05:48:29;;;;;;;3.75;2.53;;;16.10;99.90;;;;;;5083179;28;20031;-80
2022/07/14 05:51:02;;;;;;;3.72;1.60;;;16.20;99.90;;;;;;5082586;28;20020;-83
2022/07/14 05:53:28;;;;;;;11.10;3.15;;;16.30;99.90;;;;;;5087316;28;20040;-79
2022/07/14 05:55:54;;;;;;;6.10;2.50;;;16.30;99.90;;;;;;5072928;28;20032;-77
2022/07/14 05:58:19;;;;;;;6.88;2.92;;;16.40;99.90;;;;;;5073300;28;20093;-80
2022/07/14 06:00:45;;;;;;;4.47;2.35;;;16.50;99.90;;;;;;5074071;28;20016;-80
2022/07/14 06:03:10;;;;;;;7.63;2.80;;;16.60;99.90;;;;;;5076120;28;20056;-79
2022/07/14 06:05:36;;;;;;;10.30;2.90;;;16.80;99.90;;;;;;5077910;28;20475;-79
2022/07/14 06:08:01;;;;;;;4.82;2.35;;;17.00;99.90;;;;;;5085031;28;20055;-79
2022/07/14 06:10:29;;;;;;;4.30;2.17;;;16.90;99.90;;;;;;5080506;28;20044;-80
2022/07/14 06:12:55;;;;;;;5.18;2.63;;;16.90;99.90;;;;;;5074542;28;20028;-78
2022/07/14 06:15:20;;;;;;;4.68;2.38;;;16.90;99.90;;;;;;5075219;28;20020;-78
2022/07/14 06:17:46;;;;;;;7.45;3.55;;;17.00;99.90;;;;;;5083233;28;20551;-79
2022/07/14 06:20:11;;;;;;;7.55;2.78;;;17.00;99.90;;;;;;5075339;28;20028;-80
2022/07/14 06:22:37;;;;;;;10.70;3.03;;;17.00;99.90;;;;;;5085643;28;20140;-79
2022/07/14 06:25:03;;;;;;;5.93;2.58;;;17.00;99.90;;;;;;5077168;28;20029;-78
2022/07/14 06:27:29;;;;;;;12.65;3.45;;;17.00;99.90;;;;;;5083216;28;20029;-81
2022/07/14 06:29:54;;;;;;;12.77;2.92;;;16.90;99.90;;;;;;5080363;28;20490;-79
2022/07/14 06:32:20;;;;;;;7.45;3.00;;;17.10;99.90;;;;;;5076885;28;20027;-79
2022/07/14 06:34:46;;;;;;;7.00;3.28;;;17.10;99.90;;;;;;5083176;28;20036;-80
2022/07/14 06:37:15;;;;;;;6.43;3.10;;;17.00;99.90;;;;;;5076434;28;20028;-80
2022/07/14 06:39:41;;;;;;;7.55;2.85;;;17.00;99.90;;;;;;5082451;28;20035;-80
2022/07/14 06:42:07;;;;;;;6.55;2.78;;;17.10;99.90;;;;;;5084633;28;20100;-79
2022/07/14 06:44:33;;;;;;;7.22;3.00;;;17.20;99.90;;;;;;5078070;28;20016;-79
2022/07/14 06:46:59;;;;;;;11.07;3.30;;;17.20;99.90;;;;;;5077138;28;20020;-78
2022/07/14 06:49:25;;;;;;;11.95;3.35;;;17.30;99.90;;;;;;5078344;28;20080;-80
2022/07/14 06:51:51;;;;;;;7.97;2.80;;;17.30;99.90;;;;;;5085974;28;20154;-80
2022/07/14 06:54:16;;;;;;;10.02;3.95;;;17.30;99.90;;;;;;5082740;28;20032;-80
2022/07/14 06:56:42;;;;;;;5.30;2.92;;;17.40;99.90;;;;;;5079253;28;20020;-78
2022/07/14 06:59:08;;;;;;;6.63;2.97;;;17.40;99.90;;;;;;5085209;28;20028;-78
2022/07/14 07:01:34;;;;;;;7.85;3.20;;;17.50;99.90;;;;;;5080640;28;20021;-80
2022/07/14 07:03:59;;;;;;;5.95;2.55;;;17.50;99.90;;;;;;5080294;28;20035;-78
2022/07/14 07:06:43;;;;;;;3.65;2.38;;;17.60;99.90;;;;;;5076464;28;20024;-80
2022/07/14 07:09:09;;;;;;;5.75;2.05;;;17.60;99.90;;;;;;5078371;28;20076;-79
2022/07/14 07:11:35;;;;;;;6.22;2.15;;;17.70;99.90;;;;;;5086056;28;20035;-80
2022/07/14 07:14:01;;;;;;;6.30;2.05;;;17.80;99.90;;;;;;5080735;28;20028;-78
2022/07/14 07:16:27;;;;;;;10.63;2.65;;;17.80;99.90;;;;;;5077767;28;20047;-79
2022/07/14 07:18:52;;;;;;;7.82;2.40;;;17.90;99.90;;;;;;5076651;28;20021;-79
2022/07/14 07:21:20;;;;;;;4.68;1.40;;;17.90;99.90;;;;;;5092758;28;20054;-80
2022/07/14 07:23:49;;;;;;;6.38;1.95;;;18.00;99.90;;;;;;5084250;28;20028;-79
2022/07/14 07:26:16;;;;;;;7.82;1.92;;;18.10;99.90;;;;;;5074563;28;20103;-78
2022/07/14 07:28:41;;;;;;;6.68;1.85;;;18.10;99.90;;;;;;5079374;28;20060;-80
2022/07/14 07:31:07;;;;;;;4.72;1.80;;;18.30;99.90;;;;;;5076776;28;20295;-79
2022/07/14 07:33:33;;;;;;;6.30;1.98;;;18.30;99.90;;;;;;5084915;28;20028;-79
2022/07/14 07:36:00;;;;;;;7.75;1.70;;;18.50;99.90;;;;;;5080642;28;20380;-80
2022/07/14 07:38:26;;;;;;;9.25;2.42;;;18.60;99.90;;;;;;5078426;28;20074;-78
2022/07/14 07:40:53;;;;;;;8.70;2.17;;;18.80;99.90;;;;;;5089341;28;20028;-79
2022/07/14 07:43:22;;;;;;;7.30;1.85;;;18.90;99.90;;;;;;5074682;28;20032;-81
2022/07/14 07:45:50;;;;;;;3.42;1.52;;;19.00;99.90;;;;;;5076021;28;20029;-80
2022/07/14 07:48:16;;;;;;;8.43;1.98;;;19.00;99.90;;;;;;5075659;28;20035;-78
2022/07/14 07:50:43;;;;;;;5.68;2.08;;;19.20;99.90;;;;;;5083880;28;20107;-79
2022/07/14 07:53:10;;;;;;;5.53;1.80;;;19.40;99.90;;;;;;5071686;28;20049;-80
2022/07/14 07:55:35;;;;;;;3.83;1.48;;;19.70;99.90;;;;;;5072013;28;20388;-81
2022/07/14 07:58:02;;;;;;;5.18;1.50;;;20.00;99.90;;;;;;5072334;28;20017;-80
2022/07/14 08:00:27;;;;;;;4.40;1.60;;;20.10;99.90;;;;;;5072393;28;20040;-77
2022/07/14 08:02:54;;;;;;;4.43;1.85;;;20.20;99.90;;;;;;5071896;28;20020;-75
2022/07/14 08:05:25;;;;;;;4.70;1.63;;;20.30;99.90;;;;;;5075454;28;20059;-78
2022/07/14 08:07:50;;;;;;;8.07;2.00;;;20.30;99.90;;;;;;5084643;28;20081;-77
2022/07/14 08:10:19;;;;;;;4.43;1.75;;;20.20;99.90;;;;;;5086087;28;20047;-74
2022/07/14 08:12:45;;;;;;;3.28;1.63;;;20.00;99.90;;;;;;5092345;28;20016;-76
2022/07/14 08:15:12;;;;;;;4.70;1.30;;;20.00;99.90;;;;;;5091554;28;20388;-77
2022/07/14 08:17:38;;;;;;;4.60;1.40;;;20.00;99.90;;;;;;5091934;28;20085;-78
2022/07/14 08:20:06;;;;;;;3.78;1.58;;;19.90;99.90;;;;;;5091953;28;20492;-78
2022/07/14 08:22:31;;;;;;;3.72;1.55;;;19.90;99.90;;;;;;5091574;28;20032;-78
2022/07/14 08:24:57;;;;;;;7.22;2.33;;;19.90;99.90;;;;;;5091400;28;20027;-80
2022/07/14 08:27:23;;;;;;;7.47;2.33;;;19.90;99.90;;;;;;5092459;28;20500;-79
2022/07/14 08:29:50;;;;;;;4.88;1.80;;;20.00;99.90;;;;;;5093647;28;20089;-78
2022/07/14 08:32:17;;;;;;;5.13;1.50;;;20.00;99.90;;;;;;5096701;28;20470;-79
2022/07/14 08:34:42;;;;;;;6.15;1.85;;;19.90;99.90;;;;;;5096193;28;20036;-79
2022/07/14 08:37:08;;;;;;;5.40;1.38;;;19.90;99.90;;;;;;5084935;28;20073;-79
2022/07/14 08:39:33;;;;;;;5.05;2.22;;;19.90;99.90;;;;;;5080192;28;20029;-79
2022/07/14 08:42:01;;;;;;;7.70;2.10;;;19.80;99.90;;;;;;5074058;28;20112;-78
2022/07/14 08:44:27;;;;;;;9.07;2.70;;;19.80;99.90;;;;;;5074971;28;20032;-78
2022/07/14 08:46:55;;;;;;;8.48;1.85;;;19.90;99.90;;;;;;5075668;28;20063;-79
2022/07/14 08:49:21;;;;;;;9.63;2.42;;;20.00;99.90;;;;;;5075473;28;20099;-79
2022/07/14 08:51:49;;;;;;;7.68;2.30;;;19.90;99.90;;;;;;5075137;28;20032;-78
2022/07/14 08:54:16;;;;;;;5.80;1.50;;;19.80;99.90;;;;;;5079881;28;20052;-77
2022/07/14 08:56:42;;;;;;;5.95;1.45;;;19.80;99.90;;;;;;5075222;28;20498;-78
2022/07/14 08:59:09;;;;;;;5.25;1.65;;;19.90;99.90;;;;;;5075743;28;20435;-78
2022/07/14 09:01:36;;;;;;;5.57;1.83;;;20.10;99.90;;;;;;5082861;28;20069;-77
2022/07/14 09:04:03;;;;;;;8.27;1.55;;;20.20;99.90;;;;;;5080512;28;20028;-78
2022/07/14 09:06:52;;;;;;;3.63;1.40;;;20.20;99.90;;;;;;5094824;28;20027;-79
2022/07/14 09:09:24;;;;;;;6.47;1.45;;;20.30;99.90;;;;;;5082701;28;20051;-79
2022/07/14 09:11:57;;;;;;;5.40;1.75;;;20.40;99.90;;;;;;5086757;28;20384;-78
2022/07/14 09:14:28;;;;;;;4.72;1.75;;;20.60;99.90;;;;;;5080838;28;20055;-79
2022/07/14 09:17:13;;;;;;;;;;;20.50;99.90;;;;;;5083667;28;20028;-79
2022/07/14 09:20:00;;;;;;;4.50;1.35;;;20.50;99.90;;;;;;5084934;28;20006;-76
2022/07/14 09:22:31;;;;;;;5.32;1.73;;;20.60;99.90;;;;;;5075360;28;20028;-78
2022/07/14 09:24:57;;;;;;;10.13;1.85;;;20.80;99.90;;;;;;5075763;28;20103;-77
2022/07/14 09:27:22;;;;;;;5.97;1.60;;;20.80;99.90;;;;;;5077307;28;20048;-79
2022/07/14 09:29:55;;;;;;;3.20;1.45;;;20.80;99.90;;;;;;5077402;28;20086;-78
2022/07/14 09:32:45;;;;;;;6.65;1.42;;;21.00;99.90;;;;;;5075407;28;20460;-79
2022/07/14 09:35:13;;;;;;;4.60;1.40;;;21.00;99.80;;;;;;5076479;28;20045;-79
2022/07/14 09:37:39;;;;;;;4.93;1.67;;;21.10;99.40;;;;;;5075352;28;20020;-80
2022/07/14 09:40:11;;;;;;;4.80;1.48;;;21.10;99.30;;;;;;5074102;28;20024;-76
2022/07/14 09:42:51;;;;;;;7.07;2.17;;;21.20;99.70;;;;;;5074807;28;20023;-78
2022/07/14 09:45:24;;;;;;;8.27;1.70;;;21.30;99.90;;;;;;5074588;28;20415;-79
2022/07/14 09:47:56;;;;;;;5.47;1.65;;;21.40;99.90;;;;;;5074498;28;20024;-76
2022/07/14 09:50:54;;;;;;;7.70;1.98;;;21.50;99.90;;;;;;5075474;28;20046;-80
2022/07/14 09:53:24;;;;;;;10.23;2.35;;;21.50;99.90;;;;;;5095377;28;20035;-80
2022/07/14 09:55:58;;;;;;;;;;;21.40;99.90;;;;;;5107967;28;20023;-80
2022/07/14 09:58:33;;;;;;;4.38;1.42;;;21.40;99.50;;;;;;5108102;28;19903;-80
2022/07/14 10:01:00;;;;;;;9.32;1.50;;;21.50;99.90;;;;;;5109583;28;20044;-81
2022/07/14 10:03:28;;;;;;;4.78;1.80;;;21.50;98.20;;;;;;5100286;28;20102;-79
2022/07/14 10:05:56;;;;;;;3.80;1.70;;;21.70;98.90;;;;;;5105723;28;20024;-80
2022/07/14 10:08:27;;;;;;;2.55;1.50;;;21.80;98.50;;;;;;5099421;28;20067;-80
2022/07/14 10:10:54;;;;;;;4.80;1.58;;;21.90;97.80;;;;;;5097021;28;20024;-80
2022/07/14 10:13:20;;;;;;;3.47;1.40;;;22.00;97.70;;;;;;5113114;28;20028;-80
2022/07/14 10:15:52;;;;;;;5.43;1.80;;;22.10;97.50;;;;;;5104006;28;20395;-79
2022/07/14 10:18:22;;;;;;;5.82;1.75;;;22.20;96.80;;;;;;5106588;28;20019;-80
2022/07/14 10:20:56;;;;;;;1.77;0.95;;;22.20;96.50;;;;;;5096522;28;20036;-78
2022/07/14 10:23:29;;;;;;;1.83;1.20;;;22.30;96.00;;;;;;5075603;28;20031;-79
2022/07/14 10:25:56;;;;;;;4.65;1.85;;;22.40;94.90;;;;;;5077072;28;20476;-80
2022/07/14 10:28:23;;;;;;;2.45;1.42;;;22.40;95.00;;;;;;5082280;28;20031;-80
2022/07/14 10:31:08;;;;;;;3.67;0.95;;;22.50;93.80;;;;;;5083165;28;20070;-79
2022/07/14 10:33:58;;;;;;;3.38;1.02;;;22.50;93.50;;;;;;5076749;28;20511;-79
2022/07/14 10:36:31;;;;;;;4.40;0.88;;;22.60;91.80;;;;;;5038663;28;20388;-79
2022/07/14 10:39:08;;;;;;;4.45;1.17;;;22.90;92.70;;;;;;5083397;28;20021;-78
2022/07/14 10:42:07;;;;;;;4.85;1.08;;;23.00;92.40;;;;;;5075237;28;20032;-81
2022/07/14 10:44:35;;;;;;;3.63;1.05;;;23.20;93.10;;;;;;5085963;28;20032;-79
2022/07/14 10:47:12;;;;;;;5.10;1.10;;;23.30;92.40;;;;;;5079649;28;20119;-79
2022/07/14 10:50:05;;;;;;;4.18;1.00;;;23.40;93.30;;;;;;5076018;28;20029;-79
2022/07/14 10:52:38;;;;;;;1.65;0.90;;;23.60;92.10;;;;;;5080596;28;20066;-81
2022/07/14 10:55:21;;;;;;;3.75;1.10;;;23.60;92.40;;;;;;5080481;28;20032;-80
2022/07/14 10:57:59;;;;;;;4.13;1.17;;;23.70;92.80;;;;;;5073537;28;20051;-80
2022/07/14 11:00:55;;;;;;;6.13;1.67;;;24.00;92.40;;;;;;5093044;28;20028;-80
2022/07/14 11:03:32;;;;;;;3.35;1.02;;;24.30;91.70;;;;;;5076810;28;20044;-80
2022/07/14 11:06:09;;;;;;;4.25;1.02;;;24.50;90.60;;;;;;5082084;28;20486;-80
2022/07/14 11:08:40;;;;;;;2.97;0.90;;;24.60;90.10;;;;;;5095070;28;20052;-80
2022/07/14 11:11:23;;;;;;;1.55;1.00;;;24.40;89.00;;;;;;5095087;28;20087;-80
2022/07/14 11:14:00;;;;;;;2.10;0.90;;;24.40;88.50;;;;;;5094954;28;20047;-80
2022/07/14 11:16:44;;;;;;;2.33;0.82;;;24.20;88.80;;;;;;5095083;28;20073;-80
2022/07/14 11:19:21;;;;;;;3.00;1.20;;;24.30;88.90;;;;;;5093987;28;20020;-79
2022/07/14 11:22:23;;;;;;;3.17;1.33;;;24.30;89.00;;;;;;5094252;28;20028;-79
2022/07/14 11:24:58;;;;;;;4.72;1.30;;;24.30;90.10;;;;;;5058160;28;20066;-80
2022/07/14 11:27:40;;;;;;;4.15;1.40;;;24.30;90.40;;;;;;5093758;28;20042;-80
2022/07/14 11:30:26;;;;;;;3.50;1.42;;;24.30;90.60;;;;;;5093786;28;20373;-80
2022/07/14 11:33:06;;;;;;;4.68;1.23;;;24.20;90.50;;;;;;5093498;28;20027;-79
2022/07/14 11:36:20;;;;;;;8.13;1.45;;;24.00;90.50;;;;;;5081954;28;20048;-80
2022/07/14 11:38:46;;;;;;;6.45;1.30;;;23.70;90.90;;;;;;5055339;28;20492;-73
2022/07/14 11:41:14;;;;;;;2.78;1.27;;;23.50;91.50;;;;;;5096226;28;20024;-80
2022/07/14 11:43:50;;;;;;;4.13;1.50;;;23.50;91.80;;;;;;5104518;28;20036;-81
2022/07/14 11:46:18;;;;;;;9.63;1.20;;;23.50;91.90;;;;;;5099364;28;20180;-80
2022/07/14 11:48:46;;;;;;;3.60;1.40;;;23.70;91.60;;;;;;5072752;28;20491;-73
2022/07/14 11:51:22;;;;;;;5.03;1.30;;;23.90;91.60;;;;;;5083638;28;20028;-79
2022/07/14 11:54:09;;;;;;;5.13;2.08;;;24.00;90.50;;;;;;5089090;28;20038;-81
2022/07/14 11:56:35;;;;;;;3.63;1.90;;;24.00;91.10;;;;;;5099508;28;20060;-79
2022/07/14 11:59:13;;;;;;;3.65;1.55;;;24.00;91.00;;;;;;5093530;28;20028;-80
2022/07/14 12:01:41;;;;;;;3.20;1.58;;;23.90;91.10;;;;;;5095178;28;20040;-80
2022/07/14 12:04:14;;;;;;;4.28;1.20;;;23.80;91.20;;;;;;5106891;28;20115;-79
2022/07/14 12:06:43;;;;;;;4.93;1.80;;;23.70;90.80;;;;;;5104755;28;20024;-80
2022/07/14 12:09:10;;;;;;;3.33;1.30;;;23.60;91.50;;;;;;5102644;28;20056;-80
2022/07/14 12:11:36;;;;;;;2.92;1.25;;;23.60;90.80;;;;;;5091034;28;20080;-79
2022/07/14 12:14:02;;;;;;;3.42;1.00;;;23.90;91.50;;;;;;5102186;28;20031;-80
2022/07/14 12:16:28;;;;;;;4.43;1.08;;;24.10;90.90;;;;;;5097371;28;20395;-80
2022/07/14 12:18:55;;;;;;;2.72;1.20;;;24.20;89.50;;;;;;5106998;28;20016;-80
2022/07/14 12:21:34;;;;;;;4.03;1.58;;;23.90;90.30;;;;;;5103248;28;20028;-79
2022/07/14 12:24:02;;;;;;;2.38;1.13;;;23.60;90.70;;;;;;5105512;28;20024;-80
2022/07/14 12:26:28;;;;;;;3.20;1.00;;;23.30;92.00;;;;;;5092930;28;20076;-80
2022/07/14 12:28:56;;;;;;;4.18;1.00;;;23.00;93.60;;;;;;5096078;28;20107;-80
2022/07/14 12:31:22;;;;;;;3.55;1.10;;;22.90;93.70;;;;;;5092564;28;20024;-80
2022/07/14 12:33:50;;;;;;;4.18;1.40;;;22.90;93.30;;;;;;5105678;28;20058;-80
2022/07/14 12:36:19;;;;;;;5.32;1.27;;;23.10;92.70;;;;;;5107463;28;20030;-80
2022/07/14 12:38:46;;;;;;;5.07;1.58;;;23.10;92.20;;;;;;5104673;28;20031;-79
2022/07/14 12:41:15;;;;;;;2.35;0.90;;;22.90;92.60;;;;;;5100191;28;20111;-80
2022/07/14 12:43:42;;;;;;;2.38;0.80;;;22.80;93.20;;;;;;5091651;28;20107;-80
2022/07/14 12:46:17;;;;;;;4.97;1.35;;;22.90;93.40;;;;;;5101396;28;20020;-79
2022/07/14 12:48:48;;;;;;;2.78;0.82;;;23.00;92.80;;;;;;5099741;28;20025;-80
2022/07/14 12:51:54;;;;;;;5.57;1.02;;;23.20;92.70;;;;;;5090136;28;20031;-79
2022/07/14 12:54:32;;;;;;;6.75;1.35;;;23.30;92.40;;;;;;5032339;28;20049;-79
2022/07/14 12:56:57;;;;;;;1.38;0.73;;;23.50;91.60;;;;;;5091305;28;20029;-80
2022/07/14 12:59:29;;;;;;;2.45;0.85;;;23.40;91.30;;;;;;5095961;28;20047;-79